createdAt,value
2019-05-16T00:00:34.919Z,1015.70
2019-05-16T00:01:34.926Z,1015.68
2019-05-16T00:02:34.982Z,1015.62
2019-05-16T00:03:34.883Z,1015.65
2019-05-16T00:04:34.906Z,1015.64
2019-05-16T00:05:46.825Z,1015.63
2019-05-16T00:06:35.836Z,1015.62
2019-05-16T00:07:34.861Z,1015.54
2019-05-16T00:08:34.913Z,1015.53
2019-05-16T00:09:34.856Z,1015.50
2019-05-16T00:10:35.592Z,1015.49
2019-05-16T00:11:34.840Z,1015.45
2019-05-16T00:12:34.773Z,1015.48
2019-05-16T00:13:34.827Z,1015.42
2019-05-16T00:14:34.795Z,1015.48
2019-05-16T00:15:34.841Z,1015.40
2019-05-16T00:16:34.750Z,1015.42
2019-05-16T00:17:34.856Z,1015.38
2019-05-16T00:18:34.730Z,1015.33
2019-05-16T00:19:34.748Z,1015.33
2019-05-16T00:20:34.805Z,1015.32
2019-05-16T00:21:35.554Z,1015.32
2019-05-16T00:22:35.564Z,1015.29
2019-05-16T00:23:37.707Z,1015.28
2019-05-16T00:24:34.764Z,1015.26
2019-05-16T00:25:34.763Z,1015.24
2019-05-16T00:26:34.769Z,1015.21
2019-05-16T00:27:35.720Z,1015.18
2019-05-16T00:28:37.865Z,1015.18
2019-05-16T00:29:35.656Z,1015.16
2019-05-16T00:30:34.680Z,1015.19
2019-05-16T00:31:34.800Z,1015.14
2019-05-16T00:32:35.498Z,1015.15
2019-05-16T00:33:34.633Z,1015.08
2019-05-16T00:34:34.629Z,1015.14
2019-05-16T00:35:34.596Z,1015.10
2019-05-16T00:36:35.077Z,1015.07
2019-05-16T00:37:34.996Z,1015.10
2019-05-16T00:38:34.526Z,1015.04
2019-05-16T00:39:34.535Z,1015.05
2019-05-16T00:40:34.998Z,1015.07
2019-05-16T00:41:35.500Z,1015.01
2019-05-16T00:42:34.517Z,1015.00
2019-05-16T00:43:43.634Z,1014.98
2019-05-16T00:44:35.055Z,1014.96
2019-05-16T00:45:44.603Z,1014.94
2019-05-16T00:46:34.431Z,1014.97
2019-05-16T00:47:35.160Z,1014.95
2019-05-16T00:48:34.394Z,1014.90
2019-05-16T00:49:34.360Z,1014.85
2019-05-16T00:50:34.377Z,1014.91
2019-05-16T00:51:34.349Z,1014.85
2019-05-16T00:53:51.469Z,1014.76
2019-05-16T00:54:51.428Z,1014.81
2019-05-16T00:55:51.423Z,1014.75
2019-05-16T00:56:51.412Z,1014.79
2019-05-16T00:57:51.437Z,1014.74
2019-05-16T00:58:51.408Z,1014.70
2019-05-16T00:59:51.422Z,1014.71
2019-05-16T01:00:51.424Z,1014.64
2019-05-16T01:01:51.376Z,1014.63
2019-05-16T01:02:51.397Z,1014.66
2019-05-16T01:03:51.382Z,1014.64
2019-05-16T01:04:51.339Z,1014.66
2019-05-16T01:05:51.396Z,1014.57
2019-05-16T01:06:51.337Z,1014.56
2019-05-16T01:07:51.313Z,1014.55
2019-05-16T01:08:51.321Z,1014.55
2019-05-16T01:09:51.304Z,1014.45
2019-05-16T01:10:51.731Z,1014.41
2019-05-16T01:11:51.265Z,1014.38
2019-05-16T01:12:51.317Z,1014.40
2019-05-16T01:13:51.273Z,1014.37
2019-05-16T01:14:51.239Z,1014.34
2019-05-16T01:15:51.286Z,1014.31
2019-05-16T01:16:51.202Z,1014.33
2019-05-16T01:17:51.249Z,1014.31
2019-05-16T01:18:51.200Z,1014.34
2019-05-16T01:19:51.251Z,1014.26
2019-05-16T01:20:51.167Z,1014.23
2019-05-16T01:21:51.161Z,1014.26
2019-05-16T01:22:51.173Z,1014.18
2019-05-16T01:23:51.126Z,1014.21
2019-05-16T01:24:51.180Z,1014.19
2019-05-16T01:25:51.133Z,1014.16
2019-05-16T01:26:51.125Z,1014.11
2019-05-16T01:27:51.456Z,1014.16
2019-05-16T01:28:51.270Z,1014.19
2019-05-16T01:29:51.063Z,1014.18
2019-05-16T01:30:52.072Z,1014.21
2019-05-16T01:31:51.053Z,1014.08
2019-05-16T01:32:51.032Z,1014.14
2019-05-16T01:34:00.173Z,1014.13
2019-05-16T01:35:01.205Z,1014.12
2019-05-16T01:35:51.006Z,1014.08
2019-05-16T01:36:59.085Z,1014.03
2019-05-16T01:38:00.181Z,1014.01
2019-05-16T01:39:00.210Z,1014.01
2019-05-16T01:40:01.227Z,1014.01
2019-05-16T01:40:50.939Z,1013.97
2019-05-16T01:42:00.223Z,1013.91
2019-05-16T01:42:59.787Z,1013.90
2019-05-16T01:43:50.908Z,1013.89
2019-05-16T01:45:00.300Z,1013.86
2019-05-16T01:46:00.310Z,1013.84
2019-05-16T01:46:50.876Z,1013.82
2019-05-16T01:47:50.865Z,1013.86
2019-05-16T01:48:50.865Z,1013.87
2019-05-16T01:49:50.846Z,1013.84
2019-05-16T01:50:50.852Z,1013.82
2019-05-16T01:51:50.887Z,1013.79
2019-05-16T01:52:50.855Z,1013.81
2019-05-16T01:53:50.846Z,1013.74
2019-05-16T01:54:50.829Z,1013.75
2019-05-16T01:55:50.822Z,1013.73
2019-05-16T01:56:50.884Z,1013.69
2019-05-16T01:57:50.826Z,1013.69
2019-05-16T01:58:50.783Z,1013.62
2019-05-16T01:59:50.735Z,1013.65
2019-05-16T02:01:03.324Z,1013.59
2019-05-16T02:01:51.769Z,1013.58
2019-05-16T02:02:50.757Z,1013.62
2019-05-16T02:03:50.712Z,1013.52
2019-05-16T02:04:50.699Z,1013.50
2019-05-16T02:05:50.701Z,1013.51
2019-05-16T02:06:54.736Z,1013.51
2019-05-16T02:07:50.677Z,1013.45
2019-05-16T02:08:50.695Z,1013.42
2019-05-16T02:09:50.662Z,1013.38
2019-05-16T02:10:50.645Z,1013.40
2019-05-16T02:11:50.671Z,1013.31
2019-05-16T02:12:50.631Z,1013.26
2019-05-16T02:13:50.645Z,1013.27
2019-05-16T02:14:50.606Z,1013.23
2019-05-16T02:15:50.589Z,1013.24
2019-05-16T02:16:50.694Z,1013.19
2019-05-16T02:17:50.563Z,1013.23
2019-05-16T02:18:50.570Z,1013.19
2019-05-16T02:19:50.552Z,1013.23
2019-05-16T02:20:50.576Z,1013.23
2019-05-16T02:21:50.786Z,1013.14
2019-05-16T02:22:50.539Z,1013.18
2019-05-16T02:23:51.639Z,1013.17
2019-05-16T02:24:50.491Z,1013.22
2019-05-16T02:25:50.527Z,1013.22
2019-05-16T02:26:52.450Z,1013.13
2019-05-16T02:27:50.528Z,1013.09
2019-05-16T02:28:51.108Z,1013.09
2019-05-16T02:29:50.712Z,1013.04
2019-05-16T02:30:51.672Z,1013.07
2019-05-16T02:31:51.347Z,1013.03
2019-05-16T02:32:52.221Z,1013.03
2019-05-16T02:33:51.259Z,1013.02
2019-05-16T02:34:51.451Z,1013.00
2019-05-16T02:35:54.775Z,1012.99
2019-05-16T02:37:10.275Z,1013.01
2019-05-16T02:37:55.104Z,1012.96
2019-05-16T02:38:51.529Z,1012.96
2019-05-16T02:39:51.486Z,1012.92
2019-05-16T02:40:54.901Z,1012.97
2019-05-16T02:41:52.032Z,1013.00
2019-05-16T02:42:51.491Z,1012.99
2019-05-16T02:43:50.890Z,1013.00
2019-05-16T02:44:51.211Z,1013.01
2019-05-16T02:45:51.903Z,1013.03
2019-05-16T02:46:50.932Z,1013.03
2019-05-16T02:47:51.335Z,1013.03
2019-05-16T02:48:51.798Z,1012.98
2019-05-16T02:49:50.590Z,1013.00
2019-05-16T02:50:51.249Z,1013.02
2019-05-16T02:51:51.179Z,1012.97
2019-05-16T02:52:51.685Z,1012.94
2019-05-16T02:53:51.074Z,1012.98
2019-05-16T02:54:51.747Z,1012.99
2019-05-16T02:55:51.667Z,1012.99
2019-05-16T02:56:50.591Z,1012.93
2019-05-16T02:57:50.934Z,1012.95
2019-05-16T02:58:52.140Z,1012.93
2019-05-16T02:59:50.928Z,1012.90
2019-05-16T03:00:51.480Z,1012.87
2019-05-16T03:01:52.012Z,1012.89
2019-05-16T03:02:50.575Z,1012.86
2019-05-16T03:03:51.563Z,1012.88
2019-05-16T03:04:51.703Z,1012.85
2019-05-16T03:05:50.771Z,1012.84
2019-05-16T03:06:51.295Z,1012.81
2019-05-16T03:07:52.077Z,1012.82
2019-05-16T03:08:50.735Z,1012.84
2019-05-16T03:09:51.382Z,1012.80
2019-05-16T03:10:52.009Z,1012.76
2019-05-16T03:11:50.968Z,1012.76
2019-05-16T03:12:51.340Z,1012.75
2019-05-16T03:13:51.297Z,1012.75
2019-05-16T03:14:50.382Z,1012.76
2019-05-16T03:15:50.986Z,1012.74
2019-05-16T03:16:50.651Z,1012.78
2019-05-16T03:17:50.710Z,1012.73
2019-05-16T03:18:51.604Z,1012.72
2019-05-16T03:19:51.077Z,1012.64
2019-05-16T03:20:50.959Z,1012.67
2019-05-16T03:21:50.887Z,1012.66
2019-05-16T03:22:52.037Z,1012.63
2019-05-16T03:23:50.760Z,1012.63
2019-05-16T03:24:51.498Z,1012.62
2019-05-16T03:25:50.727Z,1012.61
2019-05-16T03:26:51.419Z,1012.62
2019-05-16T03:27:51.302Z,1012.61
2019-05-16T03:28:52.211Z,1012.55
2019-05-16T03:29:50.846Z,1012.58
2019-05-16T03:30:54.484Z,1012.60
2019-05-16T03:31:54.341Z,1012.56
2019-05-16T03:32:54.740Z,1012.50
2019-05-16T03:33:58.901Z,1012.53
2019-05-16T03:34:54.716Z,1012.53
2019-05-16T03:35:54.789Z,1012.53
2019-05-16T03:36:54.201Z,1012.51
2019-05-16T03:37:55.847Z,1012.52
2019-05-16T03:38:50.848Z,1012.51
2019-05-16T03:39:51.459Z,1012.51
2019-05-16T03:40:50.945Z,1012.53
2019-05-16T03:41:50.679Z,1012.48
2019-05-16T03:42:51.833Z,1012.50
2019-05-16T03:43:50.729Z,1012.42
2019-05-16T03:44:51.228Z,1012.43
2019-05-16T03:45:52.246Z,1012.44
2019-05-16T03:46:51.898Z,1012.41
2019-05-16T03:47:51.083Z,1012.43
2019-05-16T03:48:51.954Z,1012.44
2019-05-16T03:49:51.798Z,1012.44
2019-05-16T03:50:50.735Z,1012.39
2019-05-16T03:51:50.548Z,1012.44
2019-05-16T03:52:50.823Z,1012.42
2019-05-16T03:53:50.738Z,1012.41
2019-05-16T03:54:50.682Z,1012.34
2019-05-16T03:55:51.789Z,1012.38
2019-05-16T03:56:51.415Z,1012.34
2019-05-16T03:57:51.587Z,1012.32
2019-05-16T03:58:50.985Z,1012.32
2019-05-16T03:59:51.818Z,1012.33
2019-05-16T04:00:52.011Z,1012.34
2019-05-16T04:01:51.083Z,1012.32
2019-05-16T04:02:52.314Z,1012.32
2019-05-16T04:03:51.091Z,1012.32
2019-05-16T04:04:51.069Z,1012.27
2019-05-16T04:05:52.547Z,1012.33
2019-05-16T04:06:50.690Z,1012.32
2019-05-16T04:07:53.176Z,1012.33
2019-05-16T04:08:51.130Z,1012.37
2019-05-16T04:09:50.726Z,1012.30
2019-05-16T04:10:52.210Z,1012.33
2019-05-16T04:11:50.963Z,1012.28
2019-05-16T04:12:51.281Z,1012.28
2019-05-16T04:13:50.822Z,1012.28
2019-05-16T04:14:51.300Z,1012.23
2019-05-16T04:15:52.341Z,1012.29
2019-05-16T04:16:51.053Z,1012.28
2019-05-16T04:17:51.283Z,1012.23
2019-05-16T04:18:51.429Z,1012.19
2019-05-16T04:19:50.842Z,1012.15
2019-05-16T04:20:52.305Z,1012.19
2019-05-16T04:21:51.090Z,1012.22
2019-05-16T04:22:51.317Z,1012.20
2019-05-16T04:23:50.597Z,1012.22
2019-05-16T04:24:51.235Z,1012.22
2019-05-16T04:25:52.324Z,1012.23
2019-05-16T04:26:51.702Z,1012.24
2019-05-16T04:27:50.152Z,1012.18
2019-05-16T04:28:51.399Z,1012.20
2019-05-16T04:29:51.344Z,1012.17
2019-05-16T04:30:50.794Z,1012.21
2019-05-16T04:31:50.861Z,1012.21
2019-05-16T04:32:51.059Z,1012.21
2019-05-16T04:33:51.659Z,1012.11
2019-05-16T04:34:51.149Z,1012.13
2019-05-16T04:35:51.814Z,1012.13
2019-05-16T04:36:51.544Z,1012.09
2019-05-16T04:37:51.335Z,1012.12
2019-05-16T04:38:51.234Z,1012.11
2019-05-16T04:39:50.679Z,1012.08
2019-05-16T04:40:51.615Z,1012.13
2019-05-16T04:41:50.886Z,1012.08
2019-05-16T04:42:51.277Z,1012.04
2019-05-16T04:43:50.593Z,1012.05
2019-05-16T04:44:51.646Z,1012.07
2019-05-16T04:45:51.976Z,1012.06
2019-05-16T04:46:50.991Z,1012.04
2019-05-16T04:47:51.181Z,1012.07
2019-05-16T04:48:50.818Z,1012.02
2019-05-16T04:49:51.872Z,1012.07
2019-05-16T04:50:51.657Z,1012.01
2019-05-16T04:51:51.614Z,1011.97
2019-05-16T04:52:51.477Z,1011.97
2019-05-16T04:53:50.990Z,1012.02
2019-05-16T04:54:51.240Z,1012.01
2019-05-16T04:55:51.723Z,1011.98
2019-05-16T04:56:51.331Z,1012.02
2019-05-16T04:57:51.089Z,1011.98
2019-05-16T04:58:51.507Z,1012.03
2019-05-16T04:59:50.939Z,1011.95
2019-05-16T05:00:51.711Z,1011.96
2019-05-16T05:01:51.098Z,1011.97
2019-05-16T05:02:51.578Z,1011.98
2019-05-16T05:04:01.711Z,1011.91
2019-05-16T05:04:50.923Z,1011.95
2019-05-16T05:05:51.409Z,1011.93
2019-05-16T05:06:51.245Z,1011.97
2019-05-16T05:07:51.122Z,1011.90
2019-05-16T05:08:57.624Z,1011.91
2019-05-16T05:09:51.363Z,1011.94
2019-05-16T05:10:51.416Z,1011.96
2019-05-16T05:11:51.690Z,1011.90
2019-05-16T05:12:51.392Z,1011.90
2019-05-16T05:13:50.645Z,1011.93
2019-05-16T05:14:51.011Z,1011.94
2019-05-16T05:15:50.978Z,1011.95
2019-05-16T05:16:50.724Z,1011.88
2019-05-16T05:17:50.274Z,1011.94
2019-05-16T05:18:51.218Z,1011.93
2019-05-16T05:19:50.660Z,1011.93
2019-05-16T05:20:51.739Z,1011.87
2019-05-16T05:21:51.201Z,1011.91
2019-05-16T05:22:49.999Z,1011.92
2019-05-16T05:23:50.669Z,1011.83
2019-05-16T05:24:50.609Z,1011.90
2019-05-16T05:25:50.962Z,1011.88
2019-05-16T05:26:50.369Z,1011.92
2019-05-16T05:27:50.084Z,1011.94
2019-05-16T05:28:50.587Z,1011.90
2019-05-16T05:29:50.243Z,1011.85
2019-05-16T05:30:50.274Z,1011.87
2019-05-16T05:31:54.237Z,1011.86
2019-05-16T05:32:50.224Z,1011.79
2019-05-16T05:33:50.731Z,1011.83
2019-05-16T05:34:50.341Z,1011.80
2019-05-16T05:35:50.793Z,1011.80
2019-05-16T05:36:51.010Z,1011.77
2019-05-16T05:37:50.585Z,1011.73
2019-05-16T05:38:55.571Z,1011.73
2019-05-16T05:39:50.438Z,1011.72
2019-05-16T05:40:50.761Z,1011.77
2019-05-16T05:41:50.425Z,1011.76
2019-05-16T05:42:50.466Z,1011.78
2019-05-16T05:43:50.339Z,1011.75
2019-05-16T05:44:50.652Z,1011.75
2019-05-16T05:45:50.911Z,1011.72
2019-05-16T05:46:50.984Z,1011.70
2019-05-16T05:47:50.511Z,1011.66
2019-05-16T05:48:50.537Z,1011.69
2019-05-16T05:49:49.877Z,1011.65
2019-05-16T05:50:50.688Z,1011.66
2019-05-16T05:51:50.005Z,1011.64
2019-05-16T05:52:50.521Z,1011.64
2019-05-16T05:53:50.751Z,1011.62
2019-05-16T05:54:50.313Z,1011.67
2019-05-16T05:55:50.811Z,1011.62
2019-05-16T05:56:50.151Z,1011.65
2019-05-16T05:57:50.463Z,1011.70
2019-05-16T05:58:50.965Z,1011.67
2019-05-16T05:59:49.843Z,1011.70
2019-05-16T06:00:51.260Z,1011.68
2019-05-16T06:01:51.357Z,1011.73
2019-05-16T06:02:50.594Z,1011.71
2019-05-16T06:03:50.359Z,1011.73
2019-05-16T06:04:50.082Z,1011.72
2019-05-16T06:05:50.404Z,1011.69
2019-05-16T06:06:50.366Z,1011.71
2019-05-16T06:07:48.177Z,1011.71
2019-05-16T06:08:50.131Z,1011.69
2019-05-16T06:09:53.634Z,1011.70
2019-05-16T06:10:50.354Z,1011.70
2019-05-16T06:11:50.135Z,1011.67
2019-05-16T06:12:50.155Z,1011.68
2019-05-16T06:13:50.033Z,1011.71
2019-05-16T06:14:50.328Z,1011.70
2019-05-16T06:15:48.062Z,1011.70
2019-05-16T06:16:50.650Z,1011.71
2019-05-16T06:17:50.658Z,1011.69
2019-05-16T06:18:50.195Z,1011.69
2019-05-16T06:19:49.745Z,1011.67
2019-05-16T06:20:48.020Z,1011.68
2019-05-16T06:21:50.203Z,1011.73
2019-05-16T06:22:47.979Z,1011.79
2019-05-16T06:23:50.643Z,1011.75
2019-05-16T06:24:50.278Z,1011.78
2019-05-16T06:25:50.419Z,1011.72
2019-05-16T06:26:50.294Z,1011.68
2019-05-16T06:27:47.953Z,1011.67
2019-05-16T06:28:50.255Z,1011.69
2019-05-16T06:29:49.713Z,1011.63
2019-05-16T06:30:47.903Z,1011.66
2019-05-16T06:31:49.648Z,1011.63
2019-05-16T06:32:50.030Z,1011.54
2019-05-16T06:33:50.050Z,1011.50
2019-05-16T06:34:47.845Z,1011.51
2019-05-16T06:35:47.875Z,1011.55
2019-05-16T06:36:47.822Z,1011.57
2019-05-16T06:37:49.869Z,1011.49
2019-05-16T06:38:49.816Z,1011.48
2019-05-16T06:39:50.128Z,1011.49
2019-05-16T06:40:49.901Z,1011.45
2019-05-16T06:41:50.675Z,1011.39
2019-05-16T06:42:47.758Z,1011.43
2019-05-16T06:43:47.764Z,1011.35
2019-05-16T06:44:50.220Z,1011.35
2019-05-16T06:45:47.726Z,1011.39
2019-05-16T06:47:00.648Z,1011.40
2019-05-16T06:47:50.428Z,1011.40
2019-05-16T06:48:47.736Z,1011.44
2019-05-16T06:49:47.705Z,1011.44
2019-05-16T06:50:47.676Z,1011.47
2019-05-16T06:51:47.674Z,1011.50
2019-05-16T06:52:49.991Z,1011.33
2019-05-16T06:53:49.838Z,1011.39
2019-05-16T06:54:49.952Z,1011.47
2019-05-16T06:55:49.675Z,1011.41
2019-05-16T06:56:47.643Z,1011.38
2019-05-16T06:57:50.091Z,1011.36
2019-05-16T06:58:51.463Z,1011.34
2019-05-16T06:59:49.855Z,1011.38
2019-05-16T07:00:51.687Z,1011.40
2019-05-16T07:01:49.866Z,1011.39
2019-05-16T07:02:49.715Z,1011.34
2019-05-16T07:03:47.536Z,1011.42
2019-05-16T07:04:47.519Z,1011.41
2019-05-16T07:05:50.063Z,1011.41
2019-05-16T07:06:56.046Z,1011.34
2019-05-16T07:07:50.738Z,1011.36
2019-05-16T07:08:47.486Z,1011.29
2019-05-16T07:09:58.056Z,1011.26
2019-05-16T07:10:50.657Z,1011.25
2019-05-16T07:11:47.518Z,1011.26
2019-05-16T07:12:47.497Z,1011.25
2019-05-16T07:13:51.403Z,1011.28
2019-05-16T07:14:50.334Z,1011.19
2019-05-16T07:15:49.766Z,1011.15
2019-05-16T07:16:49.592Z,1011.18
2019-05-16T07:17:47.403Z,1011.19
2019-05-16T07:18:47.403Z,1011.20
2019-05-16T07:19:50.031Z,1011.19
2019-05-16T07:20:47.405Z,1011.15
2019-05-16T07:21:47.338Z,1011.17
2019-05-16T07:22:47.327Z,1011.16
2019-05-16T07:23:47.365Z,1011.11
2019-05-16T07:24:50.324Z,1011.18
2019-05-16T07:25:47.295Z,1011.14
2019-05-16T07:26:49.826Z,1011.17
2019-05-16T07:27:47.285Z,1011.10
2019-05-16T07:28:47.265Z,1011.11
2019-05-16T07:29:47.288Z,1011.11
2019-05-16T07:30:49.840Z,1011.07
2019-05-16T07:31:47.262Z,1011.11
2019-05-16T07:32:49.786Z,1011.13
2019-05-16T07:33:47.217Z,1011.10
2019-05-16T07:34:49.694Z,1011.19
2019-05-16T07:35:47.221Z,1011.17
2019-05-16T07:36:50.034Z,1011.11
2019-05-16T07:37:47.160Z,1011.08
2019-05-16T07:38:47.177Z,1011.13
2019-05-16T07:39:47.177Z,1011.18
2019-05-16T07:40:47.163Z,1011.15
2019-05-16T07:41:47.206Z,1011.09
2019-05-16T07:42:47.158Z,1011.06
2019-05-16T07:43:47.110Z,1011.07
2019-05-16T07:44:47.178Z,1011.09
2019-05-16T07:45:47.104Z,1011.06
2019-05-16T07:46:47.117Z,1011.04
2019-05-16T07:47:47.080Z,1011.04
2019-05-16T07:48:47.045Z,1011.06
2019-05-16T07:49:47.063Z,1011.04
2019-05-16T07:50:47.068Z,1011.01
2019-05-16T07:51:47.071Z,1010.99
2019-05-16T07:52:47.060Z,1010.95
2019-05-16T07:53:46.990Z,1010.89
2019-05-16T07:54:46.969Z,1010.92
2019-05-16T07:55:46.968Z,1010.96
2019-05-16T07:56:47.059Z,1010.97
2019-05-16T07:57:47.015Z,1011.00
2019-05-16T07:58:46.990Z,1010.92
2019-05-16T07:59:46.929Z,1010.94
2019-05-16T08:00:56.787Z,1010.94
2019-05-16T08:01:47.915Z,1010.93
2019-05-16T08:02:46.904Z,1010.96
2019-05-16T08:03:46.914Z,1010.99
2019-05-16T08:04:46.928Z,1011.00
2019-05-16T08:05:46.892Z,1011.00
2019-05-16T08:06:47.220Z,1010.95
2019-05-16T08:07:46.859Z,1010.98
2019-05-16T08:08:46.866Z,1010.93
2019-05-16T08:09:46.888Z,1010.94
2019-05-16T08:10:47.014Z,1010.89
2019-05-16T08:11:46.794Z,1010.87
2019-05-16T08:12:46.817Z,1010.89
2019-05-16T08:13:46.790Z,1010.92
2019-05-16T08:14:46.811Z,1010.88
2019-05-16T08:15:46.785Z,1010.91
2019-05-16T08:16:46.742Z,1010.85
2019-05-16T08:17:46.741Z,1010.92
2019-05-16T08:18:46.717Z,1010.82
2019-05-16T08:19:46.743Z,1010.90
2019-05-16T08:20:46.732Z,1010.84
2019-05-16T08:21:46.716Z,1010.86
2019-05-16T08:22:46.693Z,1010.87
2019-05-16T08:23:46.678Z,1010.87
2019-05-16T08:24:46.655Z,1010.92
2019-05-16T08:25:46.638Z,1010.84
2019-05-16T08:26:46.639Z,1010.89
2019-05-16T08:27:46.617Z,1010.87
2019-05-16T08:28:46.605Z,1010.80
2019-05-16T08:29:46.652Z,1010.89
2019-05-16T08:30:46.636Z,1010.82
2019-05-16T08:31:46.611Z,1010.78
2019-05-16T08:32:46.568Z,1010.74
2019-05-16T08:33:46.560Z,1010.74
2019-05-16T08:34:46.558Z,1010.78
2019-05-16T08:35:46.539Z,1010.77
2019-05-16T08:36:46.589Z,1010.81
2019-05-16T08:37:47.164Z,1010.81
2019-05-16T08:38:46.504Z,1010.81
2019-05-16T08:39:46.508Z,1010.81
2019-05-16T08:41:04.357Z,1010.78
2019-05-16T08:41:47.529Z,1010.85
2019-05-16T08:42:46.467Z,1010.80
2019-05-16T08:43:46.445Z,1010.80
2019-05-16T08:44:46.447Z,1010.80
2019-05-16T08:45:46.414Z,1010.76
2019-05-16T08:46:53.284Z,1010.75
2019-05-16T08:47:47.447Z,1010.79
2019-05-16T08:48:46.395Z,1010.76
2019-05-16T08:49:46.383Z,1010.78
2019-05-16T08:50:53.767Z,1010.75
2019-05-16T08:51:47.362Z,1010.69
2019-05-16T08:52:46.352Z,1010.71
2019-05-16T08:53:46.354Z,1010.74
2019-05-16T08:54:46.320Z,1010.70
2019-05-16T08:55:46.337Z,1010.71
2019-05-16T08:56:46.344Z,1010.70
2019-05-16T08:57:46.308Z,1010.75
2019-05-16T08:58:46.286Z,1010.72
2019-05-16T08:59:46.293Z,1010.69
2019-05-16T09:00:46.268Z,1010.71
2019-05-16T09:01:52.190Z,1010.67
2019-05-16T09:02:47.288Z,1010.67
2019-05-16T09:03:46.239Z,1010.64
2019-05-16T09:04:46.366Z,1010.70
2019-05-16T09:05:46.218Z,1010.68
2019-05-16T09:06:46.220Z,1010.65
2019-05-16T09:07:46.193Z,1010.67
2019-05-16T09:08:46.221Z,1010.69
2019-05-16T09:09:51.358Z,1010.68
2019-05-16T09:10:59.910Z,1010.61
2019-05-16T09:11:48.712Z,1010.60
2019-05-16T09:12:47.741Z,1010.58
2019-05-16T09:13:47.730Z,1010.58
2019-05-16T09:14:48.095Z,1010.57
2019-05-16T09:15:48.131Z,1010.53
2019-05-16T09:16:47.740Z,1010.59
2019-05-16T09:17:47.436Z,1010.54
2019-05-16T09:18:46.334Z,1010.47
2019-05-16T09:19:47.130Z,1010.51
2019-05-16T09:20:46.067Z,1010.50
2019-05-16T09:21:47.441Z,1010.48
2019-05-16T09:22:48.071Z,1010.53
2019-05-16T09:23:46.974Z,1010.47
2019-05-16T09:24:48.151Z,1010.52
2019-05-16T09:25:48.677Z,1010.50
2019-05-16T09:26:47.399Z,1010.46
2019-05-16T09:27:47.089Z,1010.44
2019-05-16T09:28:48.203Z,1010.47
2019-05-16T09:29:47.172Z,1010.42
2019-05-16T09:30:46.876Z,1010.50
2019-05-16T09:32:07.117Z,1010.47
2019-05-16T09:32:48.023Z,1010.46
2019-05-16T09:33:47.391Z,1010.43
2019-05-16T09:34:47.841Z,1010.44
2019-05-16T09:35:47.773Z,1010.43
2019-05-16T09:36:48.192Z,1010.50
2019-05-16T09:37:47.364Z,1010.50
2019-05-16T09:38:48.482Z,1010.49
2019-05-16T09:39:48.037Z,1010.53
2019-05-16T09:40:47.749Z,1010.52
2019-05-16T09:41:50.480Z,1010.47
2019-05-16T09:42:47.455Z,1010.49
2019-05-16T09:43:48.516Z,1010.51
2019-05-16T09:44:47.555Z,1010.49
2019-05-16T09:45:47.288Z,1010.44
2019-05-16T09:46:47.139Z,1010.46
2019-05-16T09:47:48.531Z,1010.38
2019-05-16T09:48:47.754Z,1010.30
2019-05-16T09:49:47.493Z,1010.32
2019-05-16T09:50:46.868Z,1010.36
2019-05-16T09:51:46.636Z,1010.36
2019-05-16T09:52:47.303Z,1010.32
2019-05-16T09:53:47.160Z,1010.32
2019-05-16T09:54:46.882Z,1010.24
2019-05-16T09:55:47.085Z,1010.24
2019-05-16T09:56:46.440Z,1010.27
2019-05-16T09:57:46.827Z,1010.29
2019-05-16T09:58:46.703Z,1010.33
2019-05-16T09:59:46.488Z,1010.35
2019-05-16T10:00:47.309Z,1010.35
2019-05-16T10:01:47.712Z,1010.37
2019-05-16T10:02:47.517Z,1010.38
2019-05-16T10:03:47.865Z,1010.40
2019-05-16T10:04:47.408Z,1010.38
2019-05-16T10:05:46.690Z,1010.44
2019-05-16T10:06:45.558Z,1010.44
2019-05-16T10:07:46.953Z,1010.43
2019-05-16T10:08:46.410Z,1010.49
2019-05-16T10:09:50.009Z,1010.43
2019-05-16T10:10:45.525Z,1010.41
2019-05-16T10:11:49.146Z,1010.42
2019-05-16T10:12:46.496Z,1010.38
2019-05-16T10:13:47.181Z,1010.37
2019-05-16T10:14:46.977Z,1010.37
2019-05-16T10:15:47.327Z,1010.35
2019-05-16T10:16:47.728Z,1010.32
2019-05-16T10:17:47.656Z,1010.30
2019-05-16T10:18:47.559Z,1010.31
2019-05-16T10:19:47.541Z,1010.25
2019-05-16T10:20:45.415Z,1010.28
2019-05-16T10:21:45.454Z,1010.24
2019-05-16T10:22:46.817Z,1010.23
2019-05-16T10:23:46.972Z,1010.19
2019-05-16T10:24:46.866Z,1010.22
2019-05-16T10:25:48.039Z,1010.21
2019-05-16T10:26:46.961Z,1010.22
2019-05-16T10:27:47.585Z,1010.21
2019-05-16T10:28:46.847Z,1010.22
2019-05-16T10:29:48.105Z,1010.19
2019-05-16T10:30:49.723Z,1010.09
2019-05-16T10:31:52.405Z,1010.03
2019-05-16T10:32:47.767Z,1010.09
2019-05-16T10:33:47.778Z,1010.10
2019-05-16T10:34:46.765Z,1010.07
2019-05-16T10:35:47.767Z,1010.07
2019-05-16T10:36:47.176Z,1010.04
2019-05-16T10:37:47.017Z,1010.01
2019-05-16T10:38:48.151Z,1010.00
2019-05-16T10:39:46.984Z,1009.98
2019-05-16T10:40:47.408Z,1010.04
2019-05-16T10:41:46.695Z,1010.02
2019-05-16T10:42:47.165Z,1010.11
2019-05-16T10:43:47.298Z,1010.11
2019-05-16T10:44:48.015Z,1010.12
2019-05-16T10:45:46.376Z,1010.20
2019-05-16T10:46:47.675Z,1010.13
2019-05-16T10:47:47.810Z,1010.13
2019-05-16T10:48:46.932Z,1010.12
2019-05-16T10:49:47.334Z,1010.15
2019-05-16T10:50:47.479Z,1010.14
2019-05-16T10:51:47.015Z,1010.15
2019-05-16T10:52:47.317Z,1010.10
2019-05-16T10:54:02.368Z,1010.11
2019-05-16T10:54:55.337Z,1010.03
2019-05-16T10:55:47.589Z,1010.02
2019-05-16T10:56:46.696Z,1010.05
2019-05-16T10:57:47.307Z,1010.03
2019-05-16T10:59:12.009Z,1010.01
2019-05-16T11:00:02.065Z,1009.98
2019-05-16T11:01:07.598Z,1009.96
2019-05-16T11:01:47.216Z,1009.94
2019-05-16T11:02:45.004Z,1009.91
2019-05-16T11:03:48.880Z,1009.91
2019-05-16T11:04:59.203Z,1009.92
2019-05-16T11:06:01.302Z,1009.89
2019-05-16T11:06:46.593Z,1009.91
2019-05-16T11:07:47.921Z,1009.89
2019-05-16T11:08:46.594Z,1009.90
2019-05-16T11:09:55.857Z,1009.91
2019-05-16T11:10:47.649Z,1009.89
2019-05-16T11:11:47.387Z,1009.89
2019-05-16T11:12:51.835Z,1009.85
2019-05-16T11:13:47.226Z,1009.86
2019-05-16T11:14:44.857Z,1009.85
2019-05-16T11:15:44.822Z,1009.85
2019-05-16T11:16:47.181Z,1009.83
2019-05-16T11:17:44.824Z,1009.84
2019-05-16T11:18:44.796Z,1009.86
2019-05-16T11:19:46.509Z,1009.84
2019-05-16T11:20:48.762Z,1009.88
2019-05-16T11:21:46.886Z,1009.89
2019-05-16T11:22:47.555Z,1009.90
2019-05-16T11:23:46.975Z,1009.97
2019-05-16T11:24:46.941Z,1009.93
2019-05-16T11:25:46.975Z,1009.99
2019-05-16T11:26:47.173Z,1009.96
2019-05-16T11:27:46.862Z,1009.95
2019-05-16T11:28:47.910Z,1009.96
2019-05-16T11:29:47.140Z,1009.94
2019-05-16T11:30:47.405Z,1009.91
2019-05-16T11:31:46.810Z,1009.97
2019-05-16T11:32:46.792Z,1009.95
2019-05-16T11:33:44.627Z,1009.94
2019-05-16T11:34:44.642Z,1010.01
2019-05-16T11:35:47.329Z,1009.98
2019-05-16T11:36:44.612Z,1009.92
2019-05-16T11:37:46.959Z,1009.95
2019-05-16T11:38:47.240Z,1009.91
2019-05-16T11:39:46.476Z,1009.89
2019-05-16T11:40:47.273Z,1009.87
2019-05-16T11:41:44.583Z,1009.91
2019-05-16T11:42:47.068Z,1009.91
2019-05-16T11:43:44.531Z,1009.88
2019-05-16T11:44:47.562Z,1009.88
2019-05-16T11:45:46.721Z,1009.90
2019-05-16T11:46:44.500Z,1009.86
2019-05-16T11:47:46.859Z,1009.90
2019-05-16T11:48:44.489Z,1009.93
2019-05-16T11:49:44.478Z,1009.91
2019-05-16T11:50:44.440Z,1009.88
2019-05-16T11:51:46.988Z,1009.90
2019-05-16T11:52:47.359Z,1009.84
2019-05-16T11:53:44.522Z,1009.91
2019-05-16T11:54:46.755Z,1009.90
2019-05-16T11:55:52.082Z,1009.89
2019-05-16T11:56:46.424Z,1009.86
2019-05-16T11:57:44.389Z,1009.85
2019-05-16T11:58:44.391Z,1009.84
2019-05-16T11:59:46.975Z,1009.83
2019-05-16T12:00:44.353Z,1009.80
2019-05-16T12:01:44.341Z,1009.79
2019-05-16T12:02:44.333Z,1009.80
2019-05-16T12:03:46.615Z,1009.80
2019-05-16T12:04:47.033Z,1009.77
2019-05-16T12:05:47.675Z,1009.76
2019-05-16T12:06:46.692Z,1009.78